sensor_id;sensor_type;location;lat;lon;timestamp;pressure;altitude;pressure_sealevel;temperature;humidity
29247;BME280;16272;48.188;9.964;2023-08-08T00:00:37;96053.28;;;11.14;76.57
29247;BME280;16272;48.188;9.964;2023-08-08T00:03:03;96037.63;;;11.11;76.95
29247;BME280;16272;48.188;9.964;2023-08-08T00:05:28;96042.41;;;11.08;76.85
29247;BME280;16272;48.188;9.964;2023-08-08T00:07:53;96045.44;;;11.13;76.33
29247;BME280;16272;48.188;9.964;2023-08-08T00:10:19;96039.44;;;11.11;77.06
29247;BME280;16272;48.188;9.964;2023-08-08T00:12:44;96034.44;;;11.08;76.68
29247;BME280;16272;48.188;9.964;2023-08-08T00:15:09;96038.78;;;10.81;77.59
29247;BME280;16272;48.188;9.964;2023-08-08T00:17:35;96034.44;;;10.80;77.86
29247;BME280;16272;48.188;9.964;2023-08-08T00:20:00;96029.94;;;10.80;78.23
29247;BME280;16272;48.188;9.964;2023-08-08T00:22:26;96031.34;;;10.84;77.75
29247;BME280;16272;48.188;9.964;2023-08-08T00:24:51;96035.88;;;11.02;78.01
29247;BME280;16272;48.188;9.964;2023-08-08T00:27:16;96034.19;;;11.01;77.03
29247;BME280;16272;48.188;9.964;2023-08-08T00:29:42;96043.63;;;11.13;76.87
29247;BME280;16272;48.188;9.964;2023-08-08T00:32:07;96043.56;;;11.23;76.86
29247;BME280;16272;48.188;9.964;2023-08-08T00:34:32;96031.69;;;10.99;77.23
29247;BME280;16272;48.188;9.964;2023-08-08T00:36:58;96031.00;;;10.97;77.69
29247;BME280;16272;48.188;9.964;2023-08-08T00:39:23;96026.56;;;10.88;78.29
29247;BME280;16272;48.188;9.964;2023-08-08T00:41:48;96021.97;;;10.80;78.17
29247;BME280;16272;48.188;9.964;2023-08-08T00:44:13;96022.97;;;10.79;78.25
29247;BME280;16272;48.188;9.964;2023-08-08T00:46:39;96031.09;;;10.78;78.48
29247;BME280;16272;48.188;9.964;2023-08-08T00:49:04;96016.66;;;10.80;78.45
29247;BME280;16272;48.188;9.964;2023-08-08T00:51:30;96033.56;;;10.89;78.58
29247;BME280;16272;48.188;9.964;2023-08-08T00:53:56;96028.09;;;10.91;77.87
29247;BME280;16272;48.188;9.964;2023-08-08T00:56:21;96024.63;;;10.80;78.02
29247;BME280;16272;48.188;9.964;2023-08-08T00:58:47;96025.63;;;10.79;78.12
29247;BME280;16272;48.188;9.964;2023-08-08T01:01:15;96032.50;;;10.72;78.38
29247;BME280;16272;48.188;9.964;2023-08-08T01:03:41;96032.50;;;11.00;77.66
29247;BME280;16272;48.188;9.964;2023-08-08T01:06:37;96025.28;;;10.92;79.07
29247;BME280;16272;48.188;9.964;2023-08-08T01:09:07;96028.38;;;11.15;77.34
29247;BME280;16272;48.188;9.964;2023-08-08T01:11:36;96020.50;;;11.24;77.02
29247;BME280;16272;48.188;9.964;2023-08-08T01:14:03;96020.19;;;11.27;77.33
29247;BME280;16272;48.188;9.964;2023-08-08T01:16:31;96022.34;;;11.13;77.98
29247;BME280;16272;48.188;9.964;2023-08-08T01:18:56;96024.66;;;11.44;77.04
29247;BME280;16272;48.188;9.964;2023-08-08T01:21:23;96026.88;;;11.31;78.01
29247;BME280;16272;48.188;9.964;2023-08-08T01:23:55;96020.88;;;11.29;78.64
29247;BME280;16272;48.188;9.964;2023-08-08T01:26:22;96018.22;;;11.29;78.73
29247;BME280;16272;48.188;9.964;2023-08-08T01:28:48;96014.41;;;11.31;79.03
29247;BME280;16272;48.188;9.964;2023-08-08T01:31:17;96013.25;;;11.16;79.59
29247;BME280;16272;48.188;9.964;2023-08-08T01:33:42;96023.16;;;11.42;79.27
29247;BME280;16272;48.188;9.964;2023-08-08T01:36:16;96021.91;;;11.18;79.88
29247;BME280;16272;48.188;9.964;2023-08-08T01:38:47;96019.16;;;11.10;80.38
29247;BME280;16272;48.188;9.964;2023-08-08T01:41:15;96017.63;;;11.35;79.70
29247;BME280;16272;48.188;9.964;2023-08-08T01:43:41;96008.63;;;11.18;80.17
29247;BME280;16272;48.188;9.964;2023-08-08T01:46:07;96006.19;;;11.25;79.77
29247;BME280;16272;48.188;9.964;2023-08-08T01:48:33;96007.72;;;11.45;79.14
29247;BME280;16272;48.188;9.964;2023-08-08T01:50:58;96005.44;;;11.50;79.27
29247;BME280;16272;48.188;9.964;2023-08-08T01:53:24;96007.44;;;11.48;78.90
29247;BME280;16272;48.188;9.964;2023-08-08T01:55:49;96006.56;;;11.48;78.77
29247;BME280;16272;48.188;9.964;2023-08-08T01:58:14;96000.19;;;11.40;79.66
29247;BME280;16272;48.188;9.964;2023-08-08T02:00:40;95989.13;;;11.45;78.55
29247;BME280;16272;48.188;9.964;2023-08-08T02:03:10;95992.00;;;11.34;78.87
29247;BME280;16272;48.188;9.964;2023-08-08T02:05:35;95992.81;;;11.34;78.98
29247;BME280;16272;48.188;9.964;2023-08-08T02:08:00;96003.00;;;11.39;79.10
29247;BME280;16272;48.188;9.964;2023-08-08T02:10:26;95996.53;;;11.77;78.28
29247;BME280;16272;48.188;9.964;2023-08-08T02:12:51;95991.09;;;11.61;77.98
29247;BME280;16272;48.188;9.964;2023-08-08T02:15:16;95989.94;;;11.64;78.40
29247;BME280;16272;48.188;9.964;2023-08-08T02:17:42;95985.19;;;11.93;76.84
29247;BME280;16272;48.188;9.964;2023-08-08T02:20:07;95989.63;;;11.67;78.22
29247;BME280;16272;48.188;9.964;2023-08-08T02:22:33;95988.72;;;11.76;77.80
29247;BME280;16272;48.188;9.964;2023-08-08T02:24:59;95984.63;;;11.64;78.10
29247;BME280;16272;48.188;9.964;2023-08-08T02:27:24;95987.94;;;11.66;78.81
29247;BME280;16272;48.188;9.964;2023-08-08T02:29:49;95985.47;;;11.64;79.24
29247;BME280;16272;48.188;9.964;2023-08-08T02:32:15;95978.09;;;11.58;79.72
29247;BME280;16272;48.188;9.964;2023-08-08T02:34:40;95982.31;;;11.69;79.62
29247;BME280;16272;48.188;9.964;2023-08-08T02:37:06;95987.13;;;11.65;79.24
29247;BME280;16272;48.188;9.964;2023-08-08T02:39:31;95979.59;;;11.61;79.18
29247;BME280;16272;48.188;9.964;2023-08-08T02:41:56;95977.00;;;11.69;78.34
29247;BME280;16272;48.188;9.964;2023-08-08T02:44:22;95991.59;;;12.01;77.63
29247;BME280;16272;48.188;9.964;2023-08-08T02:46:48;95996.25;;;11.99;77.68
29247;BME280;16272;48.188;9.964;2023-08-08T02:49:13;95989.28;;;12.06;77.86
29247;BME280;16272;48.188;9.964;2023-08-08T02:51:39;95987.59;;;12.05;76.99
29247;BME280;16272;48.188;9.964;2023-08-08T02:54:04;95988.97;;;12.09;77.16
29247;BME280;16272;48.188;9.964;2023-08-08T02:56:29;95985.75;;;12.23;76.38
29247;BME280;16272;48.188;9.964;2023-08-08T02:58:55;95988.47;;;12.31;75.10
29247;BME280;16272;48.188;9.964;2023-08-08T03:01:20;95991.69;;;12.17;75.97
29247;BME280;16272;48.188;9.964;2023-08-08T03:03:47;95991.53;;;11.92;77.84
29247;BME280;16272;48.188;9.964;2023-08-08T03:06:12;95983.00;;;12.07;77.50
29247;BME280;16272;48.188;9.964;2023-08-08T03:08:37;95986.94;;;12.03;77.45
29247;BME280;16272;48.188;9.964;2023-08-08T03:11:03;95990.53;;;11.93;78.60
29247;BME280;16272;48.188;9.964;2023-08-08T03:13:28;95983.75;;;11.81;78.83
29247;BME280;16272;48.188;9.964;2023-08-08T03:15:53;95978.75;;;11.78;79.43
29247;BME280;16272;48.188;9.964;2023-08-08T03:18:18;95978.59;;;11.80;79.73
29247;BME280;16272;48.188;9.964;2023-08-08T03:20:44;95976.44;;;11.83;80.03
29247;BME280;16272;48.188;9.964;2023-08-08T03:23:09;95972.03;;;11.92;78.85
29247;BME280;16272;48.188;9.964;2023-08-08T03:25:34;95971.91;;;11.93;78.51
29247;BME280;16272;48.188;9.964;2023-08-08T03:28:00;95980.50;;;11.87;78.07
29247;BME280;16272;48.188;9.964;2023-08-08T03:30:25;95968.91;;;11.97;77.78
29247;BME280;16272;48.188;9.964;2023-08-08T03:32:50;95965.50;;;12.04;77.40
29247;BME280;16272;48.188;9.964;2023-08-08T03:35:16;95969.44;;;12.26;76.26
29247;BME280;16272;48.188;9.964;2023-08-08T03:37:41;95961.56;;;12.17;76.32
29247;BME280;16272;48.188;9.964;2023-08-08T03:40:07;95961.19;;;12.11;76.28
29247;BME280;16272;48.188;9.964;2023-08-08T03:42:33;95962.25;;;11.92;77.07
29247;BME280;16272;48.188;9.964;2023-08-08T03:44:58;95964.31;;;11.81;78.26
29247;BME280;16272;48.188;9.964;2023-08-08T03:47:24;95962.19;;;11.66;78.17
29247;BME280;16272;48.188;9.964;2023-08-08T03:49:49;95962.66;;;11.62;78.46
29247;BME280;16272;48.188;9.964;2023-08-08T03:52:14;95958.19;;;11.44;79.44
29247;BME280;16272;48.188;9.964;2023-08-08T03:54:39;95954.78;;;11.34;79.52
29247;BME280;16272;48.188;9.964;2023-08-08T03:57:05;95959.09;;;11.71;77.79
29247;BME280;16272;48.188;9.964;2023-08-08T03:59:30;95962.00;;;11.86;76.35
29247;BME280;16272;48.188;9.964;2023-08-08T04:01:55;95963.66;;;11.87;76.61
29247;BME280;16272;48.188;9.964;2023-08-08T04:04:21;95958.03;;;11.90;76.01
29247;BME280;16272;48.188;9.964;2023-08-08T04:06:46;95969.38;;;11.92;75.69
29247;BME280;16272;48.188;9.964;2023-08-08T04:09:11;95976.22;;;11.94;75.51
29247;BME280;16272;48.188;9.964;2023-08-08T04:11:36;95965.00;;;11.65;75.74
29247;BME280;16272;48.188;9.964;2023-08-08T04:14:02;95971.63;;;11.07;78.25
29247;BME280;16272;48.188;9.964;2023-08-08T04:16:28;95970.31;;;10.93;79.21
29247;BME280;16272;48.188;9.964;2023-08-08T04:18:53;95977.50;;;11.10;78.60
29247;BME280;16272;48.188;9.964;2023-08-08T04:21:18;95973.91;;;11.01;79.16
29247;BME280;16272;48.188;9.964;2023-08-08T04:23:44;95975.97;;;11.26;78.42
29247;BME280;16272;48.188;9.964;2023-08-08T04:26:09;95964.34;;;11.09;79.18
29247;BME280;16272;48.188;9.964;2023-08-08T04:28:34;95981.81;;;11.29;79.13
29247;BME280;16272;48.188;9.964;2023-08-08T04:31:00;95979.16;;;11.47;77.58
29247;BME280;16272;48.188;9.964;2023-08-08T04:33:25;95981.44;;;11.60;76.69
29247;BME280;16272;48.188;9.964;2023-08-08T04:35:50;95988.41;;;11.79;75.95
29247;BME280;16272;48.188;9.964;2023-08-08T04:38:15;95993.59;;;11.81;76.23
29247;BME280;16272;48.188;9.964;2023-08-08T04:40:41;95998.19;;;11.97;75.86
29247;BME280;16272;48.188;9.964;2023-08-08T04:43:06;95998.13;;;11.88;76.07
29247;BME280;16272;48.188;9.964;2023-08-08T04:45:32;96004.28;;;12.07;75.71
29247;BME280;16272;48.188;9.964;2023-08-08T04:47:58;96002.91;;;12.03;76.32
29247;BME280;16272;48.188;9.964;2023-08-08T04:50:23;96000.16;;;12.12;77.15
29247;BME280;16272;48.188;9.964;2023-08-08T04:52:49;96009.13;;;12.38;75.58
29247;BME280;16272;48.188;9.964;2023-08-08T04:55:14;96004.25;;;12.25;77.23
29247;BME280;16272;48.188;9.964;2023-08-08T04:57:39;95996.91;;;12.27;77.64
29247;BME280;16272;48.188;9.964;2023-08-08T05:00:05;95999.06;;;12.23;77.60
29247;BME280;16272;48.188;9.964;2023-08-08T05:02:33;96000.34;;;12.19;77.78
29247;BME280;16272;48.188;9.964;2023-08-08T05:04:58;95995.19;;;12.18;78.12
29247;BME280;16272;48.188;9.964;2023-08-08T05:07:25;95996.56;;;12.22;77.48
29247;BME280;16272;48.188;9.964;2023-08-08T05:09:51;95997.84;;;12.18;78.24
29247;BME280;16272;48.188;9.964;2023-08-08T05:12:17;95998.91;;;12.25;77.06
29247;BME280;16272;48.188;9.964;2023-08-08T05:14:42;95992.34;;;12.45;76.47
29247;BME280;16272;48.188;9.964;2023-08-08T05:17:07;95995.25;;;12.60;76.57
29247;BME280;16272;48.188;9.964;2023-08-08T05:19:32;95985.41;;;12.61;76.01
29247;BME280;16272;48.188;9.964;2023-08-08T05:21:59;95986.63;;;12.66;75.04
29247;BME280;16272;48.188;9.964;2023-08-08T05:24:24;95983.88;;;12.84;76.11
29247;BME280;16272;48.188;9.964;2023-08-08T05:26:49;95984.72;;;12.93;75.99
29247;BME280;16272;48.188;9.964;2023-08-08T05:29:15;95995.66;;;12.82;76.05
29247;BME280;16272;48.188;9.964;2023-08-08T05:31:40;95988.41;;;12.92;76.81
29247;BME280;16272;48.188;9.964;2023-08-08T05:34:05;95988.38;;;12.84;76.23
29247;BME280;16272;48.188;9.964;2023-08-08T05:36:31;95982.63;;;13.30;73.84
29247;BME280;16272;48.188;9.964;2023-08-08T05:38:56;95986.09;;;13.05;74.85
29247;BME280;16272;48.188;9.964;2023-08-08T05:41:21;95982.84;;;13.28;74.58
29247;BME280;16272;48.188;9.964;2023-08-08T05:43:46;95976.81;;;13.26;73.73
29247;BME280;16272;48.188;9.964;2023-08-08T05:46:12;95981.81;;;13.29;74.04
29247;BME280;16272;48.188;9.964;2023-08-08T05:48:37;95977.91;;;13.58;73.76
29247;BME280;16272;48.188;9.964;2023-08-08T05:51:02;95985.56;;;13.61;72.40
29247;BME280;16272;48.188;9.964;2023-08-08T05:53:30;95989.06;;;13.78;73.78
29247;BME280;16272;48.188;9.964;2023-08-08T05:55:55;95986.88;;;13.49;72.82
29247;BME280;16272;48.188;9.964;2023-08-08T05:58:20;95997.22;;;13.60;73.03
29247;BME280;16272;48.188;9.964;2023-08-08T06:00:46;95997.22;;;14.01;73.57
29247;BME280;16272;48.188;9.964;2023-08-08T06:03:11;95991.84;;;14.34;72.30
29247;BME280;16272;48.188;9.964;2023-08-08T06:05:37;95986.56;;;14.01;72.80
29247;BME280;16272;48.188;9.964;2023-08-08T06:08:02;95986.19;;;14.29;71.48
29247;BME280;16272;48.188;9.964;2023-08-08T06:10:29;95984.84;;;14.16;70.75
29247;BME280;16272;48.188;9.964;2023-08-08T06:12:54;95984.88;;;13.92;71.20
29247;BME280;16272;48.188;9.964;2023-08-08T06:15:19;95986.56;;;13.93;71.38
29247;BME280;16272;48.188;9.964;2023-08-08T06:17:45;95982.91;;;13.77;69.27
29247;BME280;16272;48.188;9.964;2023-08-08T06:20:10;95978.06;;;13.89;70.68
29247;BME280;16272;48.188;9.964;2023-08-08T06:22:36;95988.06;;;13.87;70.01
29247;BME280;16272;48.188;9.964;2023-08-08T06:25:02;95986.38;;;14.03;69.87
29247;BME280;16272;48.188;9.964;2023-08-08T06:27:28;95984.53;;;13.95;68.63
29247;BME280;16272;48.188;9.964;2023-08-08T06:29:53;95987.16;;;14.28;68.13
29247;BME280;16272;48.188;9.964;2023-08-08T06:32:18;95985.22;;;14.13;69.28
29247;BME280;16272;48.188;9.964;2023-08-08T06:34:43;95986.88;;;13.98;69.56
29247;BME280;16272;48.188;9.964;2023-08-08T06:37:09;95982.16;;;14.25;68.77
29247;BME280;16272;48.188;9.964;2023-08-08T06:39:35;95982.50;;;14.38;68.82
29247;BME280;16272;48.188;9.964;2023-08-08T06:42:00;95977.53;;;14.10;69.21
29247;BME280;16272;48.188;9.964;2023-08-08T06:44:26;95976.47;;;14.28;68.48
29247;BME280;16272;48.188;9.964;2023-08-08T06:46:51;95977.16;;;14.38;66.25
29247;BME280;16272;48.188;9.964;2023-08-08T06:49:16;95970.75;;;14.95;67.41
29247;BME280;16272;48.188;9.964;2023-08-08T06:51:42;95973.41;;;14.56;66.33
29247;BME280;16272;48.188;9.964;2023-08-08T06:54:07;95973.22;;;15.05;66.35
29247;BME280;16272;48.188;9.964;2023-08-08T06:56:33;95971.78;;;15.25;64.72
29247;BME280;16272;48.188;9.964;2023-08-08T06:58:58;95965.16;;;15.13;66.40
29247;BME280;16272;48.188;9.964;2023-08-08T07:01:23;95966.13;;;15.20;65.57
29247;BME280;16272;48.188;9.964;2023-08-08T07:03:49;95962.47;;;15.13;64.43
29247;BME280;16272;48.188;9.964;2023-08-08T07:06:17;95958.41;;;15.25;65.32
29247;BME280;16272;48.188;9.964;2023-08-08T07:08:42;95955.03;;;15.32;65.45
29247;BME280;16272;48.188;9.964;2023-08-08T07:11:07;95963.06;;;15.32;64.62
29247;BME280;16272;48.188;9.964;2023-08-08T07:13:33;95956.22;;;15.52;65.21
29247;BME280;16272;48.188;9.964;2023-08-08T07:15:58;95951.38;;;15.24;63.56
29247;BME280;16272;48.188;9.964;2023-08-08T07:18:23;95949.72;;;15.23;62.63
29247;BME280;16272;48.188;9.964;2023-08-08T07:20:49;95943.72;;;15.68;65.35
29247;BME280;16272;48.188;9.964;2023-08-08T07:23:15;95954.88;;;15.79;63.50
29247;BME280;16272;48.188;9.964;2023-08-08T07:25:40;95956.19;;;15.98;64.27
29247;BME280;16272;48.188;9.964;2023-08-08T07:28:05;95950.72;;;15.92;61.30
29247;BME280;16272;48.188;9.964;2023-08-08T07:30:31;95945.78;;;16.04;64.69
29247;BME280;16272;48.188;9.964;2023-08-08T07:32:56;95941.50;;;15.94;62.06
29247;BME280;16272;48.188;9.964;2023-08-08T07:35:21;95941.81;;;16.14;62.11
29247;BME280;16272;48.188;9.964;2023-08-08T07:37:47;95943.69;;;16.29;60.94
29247;BME280;16272;48.188;9.964;2023-08-08T07:40:17;95936.47;;;16.59;62.99
29247;BME280;16272;48.188;9.964;2023-08-08T07:42:47;95938.75;;;16.77;61.69
29247;BME280;16272;48.188;9.964;2023-08-08T07:45:12;95931.28;;;16.72;61.15
29247;BME280;16272;48.188;9.964;2023-08-08T07:47:38;95927.25;;;17.13;61.38
29247;BME280;16272;48.188;9.964;2023-08-08T07:50:03;95926.50;;;16.68;62.91
29247;BME280;16272;48.188;9.964;2023-08-08T07:52:29;95936.38;;;16.52;60.40
29247;BME280;16272;48.188;9.964;2023-08-08T07:54:54;95927.88;;;16.64;60.32
29247;BME280;16272;48.188;9.964;2023-08-08T07:57:19;95922.84;;;17.05;59.19
29247;BME280;16272;48.188;9.964;2023-08-08T07:59:45;95917.84;;;17.02;59.07
29247;BME280;16272;48.188;9.964;2023-08-08T08:02:10;95920.38;;;17.25;60.09
29247;BME280;16272;48.188;9.964;2023-08-08T08:04:35;95918.88;;;17.23;60.58
29247;BME280;16272;48.188;9.964;2023-08-08T08:07:01;95912.88;;;17.64;58.17
29247;BME280;16272;48.188;9.964;2023-08-08T08:09:27;95906.94;;;17.69;58.81
29247;BME280;16272;48.188;9.964;2023-08-08T08:11:54;95913.88;;;17.56;61.44
29247;BME280;16272;48.188;9.964;2023-08-08T08:14:20;95905.91;;;17.70;57.81
29247;BME280;16272;48.188;9.964;2023-08-08T08:16:46;95903.13;;;18.06;59.52
29247;BME280;16272;48.188;9.964;2023-08-08T08:19:11;95906.25;;;17.60;57.95
29247;BME280;16272;48.188;9.964;2023-08-08T08:21:36;95904.44;;;17.67;59.22
29247;BME280;16272;48.188;9.964;2023-08-08T08:24:03;95907.59;;;17.49;56.26
29247;BME280;16272;48.188;9.964;2023-08-08T08:26:29;95907.91;;;17.82;59.86
29247;BME280;16272;48.188;9.964;2023-08-08T08:28:54;95908.97;;;18.16;59.19
29247;BME280;16272;48.188;9.964;2023-08-08T08:31:19;95902.19;;;18.21;56.94
29247;BME280;16272;48.188;9.964;2023-08-08T08:33:45;95911.19;;;18.41;56.27
29247;BME280;16272;48.188;9.964;2023-08-08T08:36:10;95899.84;;;18.46;55.70
29247;BME280;16272;48.188;9.964;2023-08-08T08:38:36;95901.53;;;18.47;54.94
29247;BME280;16272;48.188;9.964;2023-08-08T08:41:02;95897.88;;;19.09;56.15
29247;BME280;16272;48.188;9.964;2023-08-08T08:43:28;95887.91;;;18.97;52.28
29247;BME280;16272;48.188;9.964;2023-08-08T08:45:54;95895.50;;;19.55;58.15
29247;BME280;16272;48.188;9.964;2023-08-08T08:48:21;95889.66;;;19.51;55.10
29247;BME280;16272;48.188;9.964;2023-08-08T08:50:48;95893.03;;;19.73;55.73
29247;BME280;16272;48.188;9.964;2023-08-08T08:53:15;95893.84;;;19.74;54.91
29247;BME280;16272;48.188;9.964;2023-08-08T08:55:41;95891.97;;;20.21;53.00
29247;BME280;16272;48.188;9.964;2023-08-08T08:58:06;95880.56;;;20.26;55.06
29247;BME280;16272;48.188;9.964;2023-08-08T09:00:32;95886.84;;;19.86;52.33
29247;BME280;16272;48.188;9.964;2023-08-08T09:02:58;95881.81;;;19.70;51.38
29247;BME280;16272;48.188;9.964;2023-08-08T09:05:25;95865.56;;;20.63;50.91
29247;BME280;16272;48.188;9.964;2023-08-08T09:07:51;95874.38;;;19.98;50.71
29247;BME280;16272;48.188;9.964;2023-08-08T09:10:17;95876.47;;;19.83;51.82
29247;BME280;16272;48.188;9.964;2023-08-08T09:12:42;95883.88;;;19.54;52.80
29247;BME280;16272;48.188;9.964;2023-08-08T09:15:08;95873.09;;;20.21;52.12
29247;BME280;16272;48.188;9.964;2023-08-08T09:17:35;95880.16;;;19.49;51.41
29247;BME280;16272;48.188;9.964;2023-08-08T09:20:00;95876.53;;;19.01;49.53
29247;BME280;16272;48.188;9.964;2023-08-08T09:22:25;95877.31;;;18.88;51.70
29247;BME280;16272;48.188;9.964;2023-08-08T09:24:52;95873.06;;;19.27;52.17
29247;BME280;16272;48.188;9.964;2023-08-08T09:27:17;95881.81;;;20.23;49.97
29247;BME280;16272;48.188;9.964;2023-08-08T09:29:43;95869.16;;;20.89;48.10
29247;BME280;16272;48.188;9.964;2023-08-08T09:32:08;95872.06;;;20.22;46.44
29247;BME280;16272;48.188;9.964;2023-08-08T09:34:34;95866.91;;;20.07;48.32
29247;BME280;16272;48.188;9.964;2023-08-08T09:36:59;95874.66;;;20.55;47.37
29247;BME280;16272;48.188;9.964;2023-08-08T09:39:25;95855.97;;;20.67;46.88
29247;BME280;16272;48.188;9.964;2023-08-08T09:41:51;95858.03;;;20.72;46.31
29247;BME280;16272;48.188;9.964;2023-08-08T09:44:16;95851.66;;;21.05;47.38
29247;BME280;16272;48.188;9.964;2023-08-08T09:46:42;95845.81;;;21.72;44.72
29247;BME280;16272;48.188;9.964;2023-08-08T09:49:10;95853.69;;;20.64;44.68
29247;BME280;16272;48.188;9.964;2023-08-08T09:51:36;95843.91;;;21.15;44.80
29247;BME280;16272;48.188;9.964;2023-08-08T09:54:03;95850.72;;;20.86;46.93
29247;BME280;16272;48.188;9.964;2023-08-08T09:56:29;95845.44;;;21.36;46.25
29247;BME280;16272;48.188;9.964;2023-08-08T09:58:56;95840.59;;;21.52;45.35
29247;BME280;16272;48.188;9.964;2023-08-08T10:01:22;95845.38;;;21.75;41.82
29247;BME280;16272;48.188;9.964;2023-08-08T10:03:48;95845.72;;;21.60;44.11
29247;BME280;16272;48.188;9.964;2023-08-08T10:06:16;95840.28;;;21.28;42.62
29247;BME280;16272;48.188;9.964;2023-08-08T10:08:41;95850.97;;;21.55;44.41
29247;BME280;16272;48.188;9.964;2023-08-08T10:11:08;95856.59;;;21.78;44.08
29247;BME280;16272;48.188;9.964;2023-08-08T10:13:35;95845.81;;;21.97;45.06
29247;BME280;16272;48.188;9.964;2023-08-08T10:16:07;95850.19;;;22.16;46.97
29247;BME280;16272;48.188;9.964;2023-08-08T10:18:33;95841.69;;;21.69;42.97
29247;BME280;16272;48.188;9.964;2023-08-08T10:20:59;95854.69;;;21.22;43.77
29247;BME280;16272;48.188;9.964;2023-08-08T10:23:24;95846.44;;;21.48;42.20
29247;BME280;16272;48.188;9.964;2023-08-08T10:25:52;95851.63;;;21.75;43.32
29247;BME280;16272;48.188;9.964;2023-08-08T10:28:20;95847.56;;;20.30;43.45
29247;BME280;16272;48.188;9.964;2023-08-08T10:33:20;95832.56;;;21.32;44.44
29247;BME280;16272;48.188;9.964;2023-08-08T10:36:03;95843.41;;;21.63;44.24
29247;BME280;16272;48.188;9.964;2023-08-08T10:38:46;95828.78;;;21.71;44.34
29247;BME280;16272;48.188;9.964;2023-08-08T10:41:16;95820.44;;;22.90;42.18
29247;BME280;16272;48.188;9.964;2023-08-08T10:43:53;95816.91;;;22.90;45.44
29247;BME280;16272;48.188;9.964;2023-08-08T10:46:23;95816.31;;;23.18;43.74
29247;BME280;16272;48.188;9.964;2023-08-08T10:49:05;95827.81;;;22.83;46.18
29247;BME280;16272;48.188;9.964;2023-08-08T10:51:41;95803.41;;;23.20;41.21
29247;BME280;16272;48.188;9.964;2023-08-08T10:54:13;95799.34;;;23.11;40.55
29247;BME280;16272;48.188;9.964;2023-08-08T10:56:39;95809.59;;;22.60;40.95
29247;BME280;16272;48.188;9.964;2023-08-08T10:59:20;95814.28;;;22.28;42.82
29247;BME280;16272;48.188;9.964;2023-08-08T11:01:48;95810.47;;;22.54;40.34
29247;BME280;16272;48.188;9.964;2023-08-08T11:04:15;95805.28;;;22.71;39.89
29247;BME280;16272;48.188;9.964;2023-08-08T11:06:41;95802.88;;;22.63;41.70
29247;BME280;16272;48.188;9.964;2023-08-08T11:09:06;95803.56;;;23.07;40.11
29247;BME280;16272;48.188;9.964;2023-08-08T11:11:39;95798.44;;;22.68;39.49
29247;BME280;16272;48.188;9.964;2023-08-08T11:14:15;95805.56;;;22.81;40.98
29247;BME280;16272;48.188;9.964;2023-08-08T11:16:42;95799.03;;;23.85;42.63
29247;BME280;16272;48.188;9.964;2023-08-08T11:19:09;95795.69;;;23.59;45.18
29247;BME280;16272;48.188;9.964;2023-08-08T11:21:39;95802.88;;;22.63;40.97
29247;BME280;16272;48.188;9.964;2023-08-08T11:24:05;95803.03;;;22.49;42.30
29247;BME280;16272;48.188;9.964;2023-08-08T11:26:32;95798.53;;;22.62;42.39
29247;BME280;16272;48.188;9.964;2023-08-08T11:29:01;95796.06;;;22.90;42.29
29247;BME280;16272;48.188;9.964;2023-08-08T11:31:28;95791.34;;;23.16;40.97
29247;BME280;16272;48.188;9.964;2023-08-08T11:33:54;95803.41;;;21.72;44.71
29247;BME280;16272;48.188;9.964;2023-08-08T11:36:20;95800.13;;;21.38;41.87
29247;BME280;16272;48.188;9.964;2023-08-08T11:38:46;95798.19;;;21.96;40.82
29247;BME280;16272;48.188;9.964;2023-08-08T11:41:13;95798.88;;;21.66;41.14
29247;BME280;16272;48.188;9.964;2023-08-08T11:43:40;95794.13;;;22.05;39.75
29247;BME280;16272;48.188;9.964;2023-08-08T11:46:11;95796.59;;;22.32;41.20
29247;BME280;16272;48.188;9.964;2023-08-08T11:48:37;95788.75;;;22.24;41.18
29247;BME280;16272;48.188;9.964;2023-08-08T11:51:07;95786.44;;;22.94;44.31
29247;BME280;16272;48.188;9.964;2023-08-08T11:53:32;95786.09;;;21.98;42.63
29247;BME280;16272;48.188;9.964;2023-08-08T11:55:59;95785.19;;;22.79;43.64
29247;BME280;16272;48.188;9.964;2023-08-08T11:58:25;95781.22;;;22.63;42.09
29247;BME280;16272;48.188;9.964;2023-08-08T12:00:50;95779.09;;;23.79;42.46
29247;BME280;16272;48.188;9.964;2023-08-08T12:03:18;95787.00;;;23.81;41.95
29247;BME280;16272;48.188;9.964;2023-08-08T12:05:48;95781.34;;;23.17;43.26
29247;BME280;16272;48.188;9.964;2023-08-08T12:08:17;95774.97;;;24.00;43.64
29247;BME280;16272;48.188;9.964;2023-08-08T12:10:47;95764.56;;;24.21;37.77
29247;BME280;16272;48.188;9.964;2023-08-08T12:13:15;95775.63;;;22.46;38.62
29247;BME280;16272;48.188;9.964;2023-08-08T12:15:42;95760.66;;;23.58;40.99
29247;BME280;16272;48.188;9.964;2023-08-08T12:18:07;95775.06;;;22.55;39.33
29247;BME280;16272;48.188;9.964;2023-08-08T12:20:32;95773.59;;;22.41;39.95
29247;BME280;16272;48.188;9.964;2023-08-08T12:22:58;95785.72;;;22.69;39.04
29247;BME280;16272;48.188;9.964;2023-08-08T12:25:24;95782.94;;;22.20;41.42
29247;BME280;16272;48.188;9.964;2023-08-08T12:27:49;95784.69;;;22.14;40.88
29247;BME280;16272;48.188;9.964;2023-08-08T12:30:14;95782.31;;;22.43;41.63
29247;BME280;16272;48.188;9.964;2023-08-08T12:32:40;95786.03;;;22.05;41.90
29247;BME280;16272;48.188;9.964;2023-08-08T12:35:05;95780.38;;;22.32;39.83
29247;BME280;16272;48.188;9.964;2023-08-08T12:37:31;95779.34;;;22.63;41.16
29247;BME280;16272;48.188;9.964;2023-08-08T12:39:57;95782.09;;;23.36;41.19
29247;BME280;16272;48.188;9.964;2023-08-08T12:42:22;95775.22;;;23.09;40.23
29247;BME280;16272;48.188;9.964;2023-08-08T12:44:48;95778.03;;;22.84;39.55
29247;BME280;16272;48.188;9.964;2023-08-08T12:47:16;95769.59;;;22.92;41.39
29247;BME280;16272;48.188;9.964;2023-08-08T12:49:42;95772.59;;;23.80;42.22
29247;BME280;16272;48.188;9.964;2023-08-08T12:52:07;95771.19;;;23.78;40.55
29247;BME280;16272;48.188;9.964;2023-08-08T12:54:32;95773.44;;;23.15;38.38
29247;BME280;16272;48.188;9.964;2023-08-08T12:56:58;95779.75;;;22.48;42.58